Latest Coastal Weather Observations for Whyalla

IDS60701

Issued at 1:21 am CDT Tuesday 24 January 2017 (issued every 10 minutes, with the page automatically refreshed every 10 minutes)

About coastal observations | Map of coastal stations | Coastal observations for SA | Marine services | Other Formats
Station Details ID: 018120 Name: WHYALLA AERO Lat: -33.05 Lon: 137.52 Height: 9.3 m
Data from the previous 72 hours. | See also: Recent months at Whyalla
Date/Time
CDT
Temp
°C
Wind Pressure Rain since
9am
mm
Weather Cloud Vis
km
Sea
Height
m
Swell
Dir  Spd
kts
Gust
kts
hPa Trend Height
m
Period
s
Dir
24/01:00am 21.0 SSW 16 23 1010.8 - 8.0 - Cloudy - - - - -
24/12:30am 21.0 SSW 19 26 1010.9 - 8.0 - Partly cloudy - - - - -
24/12:18am 21.5 SSW 13 25 1010.8 - 7.8 - Partly cloudy - - - - -
24/12:00am 22.7 SSW 8 12 1010.4 - 7.2 - Cloudy - - - - -
 
Date/Time
CDT
Temp
°C
Wind Pressure Rain since
9am
mm
Weather Cloud Vis
km
Sea
Height
m
Swell
Dir  Spd
kts
Gust
kts
hPa Trend Height
m
Period
s
Dir
23/11:57pm 22.7 SSW 7 9 1010.4 - 7.2 - Partly cloudy - - - - -
23/11:30pm 22.7 W 3 4 1009.9 - 7.2 - Partly cloudy 10 - - - -
23/11:00pm 22.7 W 4 5 1009.5 - 7.2 - - - - - - -
23/10:30pm 22.8 CALM 0 0 1009.3 - 7.2 - - - - - - -
23/10:00pm 23.0 WSW 4 5 1009.0 - 7.2 - Partly cloudy - - - - -
23/09:30pm 23.0 SW 4 5 1008.7 - 7.0 - Partly cloudy - - - - -
23/09:00pm 23.2 CALM 0 0 1008.2 - 6.6 Recent precip. Cloudy - - - - -
23/08:30pm 22.9 NE 1 4 1007.9 - 5.6 - - - - - - -
23/08:00pm 23.3 S 2 5 1007.7 - 4.2 - Partly cloudy - - - - -
23/07:30pm 23.2 SSE 4 6 1006.8 - 2.4 - Partly cloudy 10 - - - -
23/07:00pm 22.9 SSE 6 8 1005.9 - 2.4 - Partly cloudy - - - - -
23/06:30pm 22.8 SSE 7 9 1005.6 - 2.4 - Partly cloudy - - - - -
23/06:00pm 23.2 S 10 15 1005.6 - 2.0 - Cloudy - - - - -
23/05:30pm 23.8 S 10 13 1005.2 - 2.0 - Partly cloudy 10 - - - -
23/05:00pm 23.6 S 14 19 1004.9 - 2.0 - Partly cloudy 10 - - - -
23/04:30pm 23.4 S 13 18 1005.0 - 2.0 - Partly cloudy - - - - -
23/04:00pm 23.1 SSW 9 13 1006.0 - 1.4 - Partly cloudy - - - - -
23/03:30pm 23.4 S 13 18 1004.9 - 1.0 - Cloudy - - - - -
23/03:00pm 23.5 S 11 15 1005.2 - 0.8 Rain Cloudy - - - - -
23/02:58pm 23.6 S 11 15 1005.1 - 0.6 - Partly cloudy 5 - - - -
23/02:30pm 26.0 SSW 14 16 1005.1 - 0.2 - Partly cloudy 10 - - - -
23/02:00pm 26.5 S 13 16 1004.6 - 0.0 - Partly cloudy 10 - - - -
23/01:30pm 27.0 S 13 16 1005.0 - 0.0 - Partly cloudy 10 - - - -
23/01:00pm 28.3 S 12 15 1005.0 - 0.0 - Partly cloudy 10 - - - -
23/12:30pm 28.1 S 13 17 1005.1 - 0.0 - Partly cloudy 10 - - - -
23/12:00pm 27.2 S 15 20 1005.1 - 0.0 - Mostly cloudy 10 - - - -
23/11:37am 28.7 W 8 19 1004.8 - 0.0 - Partly cloudy 10 - - - -
23/11:30am 33.7 N 10 17 1004.6 - 0.0 - Partly cloudy 10 - - - -
23/11:00am 33.2 N 13 17 1004.3 - 0.0 - Partly cloudy 10 - - - -
23/10:30am 33.5 N 12 17 1004.3 - 0.0 - Partly cloudy 10 - - - -
23/10:00am 32.3 NNW 11 14 1004.4 - 0.0 - - 10 - - - -
23/09:30am 31.9 N 8 11 1004.5 - 0.0 - Partly cloudy 10 - - - -
23/09:00am 28.6 NNW 5 7 1004.7 - 0.0 - Cloudy 10 - - - -
23/08:30am 26.0 NNW 4 5 1004.5 - 0.0 - Partly cloudy 10 - - - -
23/08:00am 24.1 N 4 5 1004.4 - 0.0 - Partly cloudy 10 - - - -
23/07:30am 22.7 NW 4 4 1004.3 - 0.0 - Partly cloudy 10 - - - -
23/07:00am 21.8 NW 3 4 1004.1 - 0.0 - - 10 - - - -
23/06:30am 21.1 NW 5 6 1003.7 - 0.0 - - 10 - - - -
23/06:00am 21.3 NW 5 6 1003.8 - 0.0 - - 10 - - - -
23/05:30am 21.7 NW 3 3 1003.7 - 0.0 - - 10 - - - -
23/05:00am 21.9 NW 3 4 1003.6 - 0.0 - - 10 - - - -
23/04:30am 21.8 WNW 3 4 1003.7 - 0.0 - - 10 - - - -
23/04:00am 21.8 W 4 5 1003.8 - 0.0 - - 10 - - - -
23/03:30am 22.2 WNW 3 4 1004.1 - 0.0 - - 10 - - - -
23/03:00am 22.3 NW 3 4 1004.4 - 0.0 - Mostly clear 10 - - - -
23/02:30am 22.7 CALM 0 2 1005.1 - 0.0 - - 10 - - - -
23/02:00am 23.2 CALM 0 0 1005.3 - 0.0 - - 10 - - - -
23/01:30am 22.9 CALM 0 0 1005.9 - 0.0 - - 10 - - - -
23/01:00am 23.7 CALM 0 0 1006.2 - 0.0 - - 10 - - - -
23/12:30am 23.5 CALM 0 0 1006.7 - 0.0 - - 10 - - - -
23/12:00am 24.0 SW 5 7 1006.7 - 0.0 - Mostly clear 10 - - - -
 
Date/Time
CDT
Temp
°C
Wind Pressure Rain since
9am
mm
Weather Cloud Vis
km
Sea
Height
m
Swell
Dir  Spd
kts
Gust
kts
hPa Trend Height
m
Period
s
Dir
22/11:30pm 24.1 SW 7 9 1006.8 - 0.0 - - 10 - - - -
22/11:00pm 24.6 SSW 9 13 1007.1 - 0.0 - - 10 - - - -
22/10:30pm 24.8 SSW 11 15 1007.2 - 0.0 - - 10 - - - -
22/10:00pm 25.0 S 14 18 1006.8 - 0.0 - Partly cloudy 10 - - - -
22/09:30pm 27.3 SSW 9 14 1006.9 - 0.0 - Partly cloudy 10 - - - -
22/09:00pm 27.7 SSE 6 7 1006.4 - 0.0 - Mostly cloudy 10 - - - -
22/08:30pm 28.5 SE 7 10 1006.1 - 0.0 - - 10 - - - -
22/08:00pm 30.4 ESE 8 10 1006.0 - 0.0 - Partly cloudy 10 - - - -
22/07:30pm 31.2 E 9 11 1005.8 - 0.0 - Partly cloudy 10 - - - -
22/07:00pm 32.0 ESE 11 14 1005.8 - 0.0 - - 10 - - - -
22/06:30pm 32.5 ESE 12 17 1005.8 - 0.0 - - 10 - - - -
22/06:00pm 32.1 ESE 11 16 1006.1 - 0.0 - Cloudy 10 - - - -
22/05:30pm 32.0 ESE 11 14 1006.6 - 0.0 - Partly cloudy 10 - - - -
22/05:00pm 31.6 SE 10 14 1007.1 - 0.0 - Partly cloudy 10 - - - -
22/04:30pm 32.1 E 13 16 1007.2 - 0.0 - Partly cloudy 10 - - - -
22/04:00pm 32.6 E 13 17 1007.4 - 0.0 - Partly cloudy 10 - - - -
22/03:30pm 33.4 E 13 19 1007.6 - 0.0 - - 10 - - - -
22/03:00pm 32.7 E 14 19 1007.8 - 0.0 - Mostly clear 10 - - - -
22/02:30pm 33.4 ESE 13 19 1008.1 - 0.0 - - 10 - - - -
22/02:00pm 33.7 ESE 9 21 1008.5 - 0.0 - - 10 - - - -
22/01:30pm 33.6 NNW 7 11 1008.9 - 0.0 - - 10 - - - -
22/01:00pm 32.6 N 6 12 1009.2 - 0.0 - - 10 - - - -
22/12:30pm 31.9 NE 5 9 1009.7 - 0.0 - - 10 - - - -
22/12:00pm 31.6 E 8 12 1010.2 - 0.0 - - 10 - - - -
22/11:30am 30.8 E 9 14 1010.4 - 0.0 - - 10 - - - -
22/11:00am 30.2 NNE 9 13 1010.9 - 0.0 - - 10 - - - -
22/10:30am 28.8 NE 5 8 1011.3 - 0.0 - - 10 - - - -
22/10:00am 27.7 NE 6 9 1011.7 - 0.0 - - 10 - - - -
22/09:30am 25.7 ESE 2 5 1011.8 - 0.0 - - 10 - - - -
22/09:00am 24.2 E 4 5 1011.7 - 0.0 - - 10 - - - -
22/08:30am 22.9 CALM 0 0 1011.9 - 0.0 - - 10 - - - -
22/08:00am 20.1 CALM 0 0 1011.7 - 0.0 - - 10 - - - -
22/07:30am 18.8 CALM 0 0 1011.5 - 0.0 - - 10 - - - -
22/07:00am 17.0 W 3 5 1011.4 - 0.0 - - - - - - -
22/06:30am 16.5 WNW 4 6 1010.9 - 0.0 - - - - - - -
22/06:00am 16.4 NW 5 6 1010.9 - 0.0 - - - - - - -
22/05:30am 16.4 NW 5 5 1010.7 - 0.0 - - - - - - -
22/05:00am 16.8 NW 6 7 1010.5 - 0.0 - - - - - - -
22/04:30am 16.7 NW 4 5 1010.3 - 0.0 - - - - - - -
22/04:00am 16.7 NW 4 5 1010.3 - 0.0 - - 10 - - - -
22/03:30am 17.4 NW 3 5 1010.4 - 0.0 - - 10 - - - -
22/03:00am 17.8 CALM 0 0 1010.4 - 0.0 - - 10 - - - -
22/02:30am 18.4 SW 3 5 1010.5 - 0.0 - - 10 - - - -
22/02:00am 19.1 WSW 3 5 1011.0 - 0.0 - - 10 - - - -
22/01:30am 20.2 SSW 5 6 1011.1 - 0.0 - - 10 - - - -
22/01:00am 20.7 SSW 5 7 1011.6 - 0.0 - - 10 - - - -
22/12:30am 21.3 S 7 8 1011.8 - 0.0 - - 10 - - - -
22/12:00am 22.0 S 9 13 1011.8 - 0.0 - - 10 - - - -
 
Date/Time
CDT
Temp
°C
Wind Pressure Rain since
9am
mm
Weather Cloud Vis
km
Sea
Height
m
Swell
Dir  Spd
kts
Gust
kts
hPa Trend Height
m
Period
s
Dir
21/11:30pm 22.4 S 9 12 1012.0 - 0.0 - - 10 - - - -
21/11:00pm 22.6 S 10 15 1012.0 - 0.0 - - 10 - - - -
21/10:30pm 22.6 S 11 15 1011.9 - 0.0 - - 10 - - - -
21/10:00pm 22.5 S 12 16 1012.0 - 0.0 - - 10 - - - -
21/09:30pm 22.7 SSW 10 13 1011.9 - 0.0 - - 10 - - - -
21/09:00pm 22.9 SSW 10 13 1011.6 - 0.0 - - 10 - - - -
21/08:30pm 23.1 S 10 15 1011.4 - 0.0 - - 10 - - - -
21/08:00pm 23.8 S 12 15 1011.2 - 0.0 - - 10 - - - -
21/07:30pm 24.7 S 11 15 1010.9 - 0.0 - - 10 - - - -
21/07:00pm 25.9 S 11 13 1010.6 - 0.0 - - 10 - - - -
21/06:30pm 26.4 S 10 13 1010.3 - 0.0 - - 10 - - - -
21/06:00pm 26.9 SSE 9 12 1010.3 - 0.0 - - 10 - - - -
21/05:30pm 27.0 SSE 9 11 1010.5 - 0.0 - - 10 - - - -
21/05:00pm 27.6 SSE 8 11 1010.8 - 0.0 - - 10 - - - -
21/04:30pm 27.7 SSE 9 12 1011.0 - 0.0 - - 10 - - - -
21/04:00pm 26.6 SE 9 12 1011.3 - 0.0 - - 10 - - - -
21/03:30pm 27.5 ESE 6 10 1011.5 - 0.0 - - 10 - - - -
21/03:00pm 27.2 ENE 7 10 1011.9 - 0.0 - - 10 - - - -
21/02:30pm 26.5 E 7 13 1012.0 - 0.0 - - 10 - - - -
21/02:00pm 25.6 ESE 8 12 1012.3 - 0.0 - - 10 - - - -
21/01:30pm 25.4 SE 8 13 1012.7 - 0.0 - - 10 - - - -
21/01:00pm 24.7 ESE 7 10 1013.0 - 0.0 - - 10 - - - -
21/12:30pm 23.4 E 6 9 1013.2 - 0.0 - - 10 - - - -
21/12:00pm 22.5 ESE 6 9 1013.4 - 0.0 - - 10 - - - -
21/11:30am 21.9 ESE 6 9 1013.6 - 0.0 - - 10 - - - -
21/11:00am 21.2 SE 7 11 1013.9 - 0.0 - - 10 - - - -
21/10:30am 21.1 ESE 6 10 1014.1 - 0.0 - - 10 - - - -
21/10:00am 20.2 ESE 5 8 1014.2 - 0.0 - - 10 - - - -
21/09:30am 19.5 SSE 7 9 1014.2 - 0.0 - - 10 - - - -
21/09:00am 19.2 SE 8 13 1014.4 - 0.2 - - 10 - - - -
21/08:30am 18.9 ESE 9 12 1014.1 - 0.2 - - 10 - - - -
21/08:00am 17.8 SE 10 14 1014.0 - 0.2 - - 10 - - - -
21/07:30am 17.3 SE 9 13 1013.7 - 0.2 - - 10 - - - -
21/07:00am 16.9 SE 10 14 1013.5 - 0.2 - - 10 - - - -
21/06:30am 16.7 SE 9 13 1013.1 - 0.2 - - 10 - - - -
21/06:00am 17.1 SE 10 15 1012.8 - 0.2 - - 10 - - - -
21/05:30am 17.4 SE 10 14 1012.5 - 0.2 - - 10 - - - -
21/05:00am 17.8 SE 9 14 1012.4 - 0.2 - Partly cloudy 10 - - - -
21/04:30am 18.2 SSE 10 16 1012.2 - 0.2 - - 10 - - - -
21/04:00am 18.3 SSE 11 16 1012.1 - 0.2 - - 10 - - - -
21/03:30am 18.4 SSE 10 15 1012.0 - 0.2 - Partly cloudy 10 - - - -
21/03:00am 18.8 SSE 11 16 1012.0 - 0.2 - Mostly cloudy 10 - - - -
21/02:30am 19.1 SSE 10 15 1011.8 - 0.2 - Partly cloudy 10 - - - -
21/02:00am 19.1 SSE 9 13 1011.8 - 0.2 - Partly cloudy 10 - - - -
21/01:30am 19.3 SE 10 16 1011.8 - 0.2 - Partly cloudy 10 - - - -

Other Formats:

Comma delimited format used in spreadsheet applications
http://www.bom.gov.au/fwo/IDS60701/IDS60701.95664.axf

JavaScript Object Notation format (JSON) in row-major order
http://www.bom.gov.au/fwo/IDS60701/IDS60701.95664.json